עמוד ראשי
METAR-TAF:

METAR-TAF

שדות תעופה :

ג'ונו, אלסקה, ארצות הברית

קו רוחב: 58-21-17N, קו אורך: 134-34-34W, גובה: 6מטר

תצפית מזג אוויר נוכחית

הדו"ח נערך לפני 23דקות, בשעה 10:53 UTC
רוח 5קשר מכיוון מזרח
טמפרטורת 12 צלסיוס
לחות 94%
לחץ 1014 hPa
ראות: 9.7קילומטר
מעט עננים בגובה 500רגל
עננים בינוניים בגובה 1700רגל
מעונן בגובה 2500רגל
גשם קל, אד

METAR: PAJN 241053Z 08005KT 6SM -RA BR FEW005 BKN017 OVC025 12/11 A2993 RMK AO2 RAB15 SLP135 VIS W 10 PCPN VRY LGT P0000 T01220111

זמן: 03:16 (11:16 UTC)

תחזית

הדו"ח נערך לפני 5 שעות ו 34דקות, בשעה 05:42 UTC
תחזית בתוקף מ 24 ב 06 UTC עד 25 ב 06 UTC
רוח 5קשר מכיוון מזרח
ראות: 10קילומטר
מעונן בגובה 2500רגל
זמנית מ -
24 ב 06 UTC עד 24 ב 10 UTC
רוח 5קשר מכיוון מזרח
ראות: 6.4קילומטר
עננים בינוניים בגובה 1500רגל
גשם קל
מ 24 ב 1200UTC
רוח 5קשר מכיוון מזרח
ראות: 6.4קילומטר
מעונן בגובה 1500רגל
גשם קל, אד
מ 25 ב 0100UTC
רוח 5קשר מכיוון מזרח
ראות: 10קילומטר
מעונן בגובה 3000רגל

TAF: PAJN 240542Z 2406/2506 09005KT P6SM OVC025 TEMPO 2406/2410 09005KT 4SM -RA BKN015 FM241200 08005KT 4SM -RA BR OVC015 FM250100 10005KT P6SM OVC030

תצפיות ותחזיות מזג אוויר לגבי יותר מ- 4,000 שדות תעופה ברחבי העולם. דוחות METAR ו- TAF.

התחנות הזמינות מסומנות בנקודות צהובות ואדומות על גבי המפה.

העבר את העכבר לנקודה הצבעונית על מנת לראות את שם התחנה.

לאחר מכן, לחץ כדי לראות את תוכן ואת תחזיות מזג האוויר.

כדי לשנות את המפה: לחץ על הכפתורים הירוקים עם הפלוס השחור כדי להתקרב; על הכפתור הירוק עם המקף כדי להתרחק; או בחיצים הירוקים למפות סמוכות.


METAR-TAF: